sensor_id;sensor_type;location;lat;lon;timestamp;P1;durP1;ratioP1;P2;durP2;ratioP2
26102;SDS011;69760;49.380;8.998;2024-01-27T18:46:50;21.10;;;9.60;;
26102;SDS011;69760;49.380;8.998;2024-01-27T18:49:16;11.97;;;7.60;;
26102;SDS011;69760;49.380;8.998;2024-01-27T18:51:42;14.37;;;6.73;;
26102;SDS011;69760;49.380;8.998;2024-01-27T18:54:09;16.00;;;7.67;;
26102;SDS011;69760;49.380;8.998;2024-01-27T18:56:36;13.03;;;6.57;;
26102;SDS011;69760;49.380;8.998;2024-01-27T18:59:02;9.90;;;5.53;;
26102;SDS011;69760;49.380;8.998;2024-01-27T19:01:27;10.67;;;4.17;;
26102;SDS011;69760;49.380;8.998;2024-01-27T19:03:53;6.33;;;3.33;;
26102;SDS011;69760;49.380;8.998;2024-01-27T19:06:18;10.37;;;2.77;;
26102;SDS011;69760;49.380;8.998;2024-01-27T19:08:44;6.03;;;2.47;;
26102;SDS011;69760;49.380;8.998;2024-01-27T19:11:09;4.20;;;2.30;;
26102;SDS011;69760;49.380;8.998;2024-01-27T19:13:35;5.63;;;2.30;;
26102;SDS011;69760;49.380;8.998;2024-01-27T19:16:00;4.37;;;1.90;;
26102;SDS011;69760;49.380;8.998;2024-01-27T19:18:26;6.67;;;2.60;;
26102;SDS011;69760;49.380;8.998;2024-01-27T19:20:51;7.97;;;3.80;;
26102;SDS011;69760;49.380;8.998;2024-01-27T19:23:17;13.50;;;5.33;;
26102;SDS011;69760;49.380;8.998;2024-01-27T19:25:43;13.43;;;7.03;;
26102;SDS011;69760;49.380;8.998;2024-01-27T19:28:09;22.77;;;11.83;;
26102;SDS011;69760;49.380;8.998;2024-01-27T19:30:34;24.77;;;12.10;;
26102;SDS011;69760;49.380;8.998;2024-01-27T19:33:00;25.53;;;11.83;;
26102;SDS011;69760;49.380;8.998;2024-01-27T19:35:26;20.63;;;10.17;;
26102;SDS011;69760;49.380;8.998;2024-01-27T19:37:52;20.67;;;7.87;;
26102;SDS011;69760;49.380;8.998;2024-01-27T19:40:17;11.00;;;4.50;;
26102;SDS011;69760;49.380;8.998;2024-01-27T19:42:43;10.00;;;3.43;;
26102;SDS011;69760;49.380;8.998;2024-01-27T19:45:09;8.33;;;3.47;;
26102;SDS011;69760;49.380;8.998;2024-01-27T19:47:34;8.10;;;3.10;;
26102;SDS011;69760;49.380;8.998;2024-01-27T19:50:00;12.43;;;4.80;;
26102;SDS011;69760;49.380;8.998;2024-01-27T19:52:27;10.40;;;4.90;;
26102;SDS011;69760;49.380;8.998;2024-01-27T19:54:53;8.33;;;4.20;;
26102;SDS011;69760;49.380;8.998;2024-01-27T19:57:19;9.53;;;2.97;;
26102;SDS011;69760;49.380;8.998;2024-01-27T19:59:45;8.87;;;2.13;;
26102;SDS011;69760;49.380;8.998;2024-01-27T20:02:10;7.10;;;1.97;;
26102;SDS011;69760;49.380;8.998;2024-01-27T20:04:36;7.83;;;2.20;;
26102;SDS011;69760;49.380;8.998;2024-01-27T20:07:02;7.40;;;2.50;;
26102;SDS011;69760;49.380;8.998;2024-01-27T20:09:28;5.47;;;2.30;;
26102;SDS011;69760;49.380;8.998;2024-01-27T20:11:54;12.07;;;2.20;;
26102;SDS011;69760;49.380;8.998;2024-01-27T20:14:19;4.27;;;2.50;;
26102;SDS011;69760;49.380;8.998;2024-01-27T20:16:46;5.77;;;2.30;;
26102;SDS011;69760;49.380;8.998;2024-01-27T20:19:12;8.60;;;2.23;;
26102;SDS011;69760;49.380;8.998;2024-01-27T20:21:38;9.90;;;3.03;;
26102;SDS011;69760;49.380;8.998;2024-01-27T20:24:03;7.67;;;2.77;;
26102;SDS011;69760;49.380;8.998;2024-01-27T20:26:29;5.77;;;2.37;;
26102;SDS011;69760;49.380;8.998;2024-01-27T20:28:54;6.90;;;2.80;;
26102;SDS011;69760;49.380;8.998;2024-01-27T20:31:20;14.37;;;2.80;;
26102;SDS011;69760;49.380;8.998;2024-01-27T20:33:45;8.90;;;2.57;;
26102;SDS011;69760;49.380;8.998;2024-01-27T20:36:11;7.60;;;2.60;;
26102;SDS011;69760;49.380;8.998;2024-01-27T20:38:36;11.17;;;3.17;;
26102;SDS011;69760;49.380;8.998;2024-01-27T20:41:04;11.03;;;2.83;;
26102;SDS011;69760;49.380;8.998;2024-01-27T20:43:29;7.90;;;2.63;;
26102;SDS011;69760;49.380;8.998;2024-01-27T20:45:55;10.30;;;2.60;;
26102;SDS011;69760;49.380;8.998;2024-01-27T20:48:22;12.03;;;3.00;;
26102;SDS011;69760;49.380;8.998;2024-01-27T20:50:47;8.60;;;2.70;;
26102;SDS011;69760;49.380;8.998;2024-01-27T20:53:13;9.97;;;2.67;;
26102;SDS011;69760;49.380;8.998;2024-01-27T20:55:38;7.53;;;3.00;;
26102;SDS011;69760;49.380;8.998;2024-01-27T20:58:05;7.60;;;2.93;;
26102;SDS011;69760;49.380;8.998;2024-01-27T21:00:31;7.87;;;2.50;;
26102;SDS011;69760;49.380;8.998;2024-01-27T21:02:57;7.07;;;2.67;;
26102;SDS011;69760;49.380;8.998;2024-01-27T21:05:22;8.67;;;3.00;;
26102;SDS011;69760;49.380;8.998;2024-01-27T21:07:48;12.53;;;2.80;;
26102;SDS011;69760;49.380;8.998;2024-01-27T21:10:13;10.57;;;2.97;;
26102;SDS011;69760;49.380;8.998;2024-01-27T21:12:39;13.03;;;3.57;;
26102;SDS011;69760;49.380;8.998;2024-01-27T21:15:07;12.30;;;2.77;;
26102;SDS011;69760;49.380;8.998;2024-01-27T21:17:32;12.30;;;3.37;;
26102;SDS011;69760;49.380;8.998;2024-01-27T21:19:58;8.43;;;2.63;;
26102;SDS011;69760;49.380;8.998;2024-01-27T21:22:23;9.23;;;3.00;;
26102;SDS011;69760;49.380;8.998;2024-01-27T21:24:49;12.33;;;3.33;;
26102;SDS011;69760;49.380;8.998;2024-01-27T21:27:14;8.80;;;3.00;;
26102;SDS011;69760;49.380;8.998;2024-01-27T21:29:40;7.67;;;2.43;;
26102;SDS011;69760;49.380;8.998;2024-01-27T21:32:06;9.30;;;2.30;;
26102;SDS011;69760;49.380;8.998;2024-01-27T21:34:31;9.63;;;2.90;;
26102;SDS011;69760;49.380;8.998;2024-01-27T21:36:57;8.33;;;3.17;;
26102;SDS011;69760;49.380;8.998;2024-01-27T21:39:22;13.20;;;3.03;;
26102;SDS011;69760;49.380;8.998;2024-01-27T21:41:51;11.93;;;2.90;;
26102;SDS011;69760;49.380;8.998;2024-01-27T21:44:16;10.47;;;2.70;;
26102;SDS011;69760;49.380;8.998;2024-01-27T21:46:43;11.57;;;2.93;;
26102;SDS011;69760;49.380;8.998;2024-01-27T21:49:09;7.80;;;2.80;;
26102;SDS011;69760;49.380;8.998;2024-01-27T21:51:34;8.50;;;3.17;;
26102;SDS011;69760;49.380;8.998;2024-01-27T21:54:01;7.97;;;2.80;;
26102;SDS011;69760;49.380;8.998;2024-01-27T21:56:26;8.70;;;2.77;;
26102;SDS011;69760;49.380;8.998;2024-01-27T21:58:52;10.97;;;2.97;;
26102;SDS011;69760;49.380;8.998;2024-01-27T22:01:18;13.87;;;3.33;;
26102;SDS011;69760;49.380;8.998;2024-01-27T22:03:43;8.60;;;3.30;;
26102;SDS011;69760;49.380;8.998;2024-01-27T22:06:09;9.03;;;3.00;;
26102;SDS011;69760;49.380;8.998;2024-01-27T22:08:34;15.17;;;3.10;;
26102;SDS011;69760;49.380;8.998;2024-01-27T22:11:01;10.70;;;2.80;;
26102;SDS011;69760;49.380;8.998;2024-01-27T22:13:28;10.53;;;2.83;;
26102;SDS011;69760;49.380;8.998;2024-01-27T22:15:54;10.43;;;3.13;;
26102;SDS011;69760;49.380;8.998;2024-01-27T22:18:20;12.40;;;3.10;;
26102;SDS011;69760;49.380;8.998;2024-01-27T22:20:47;6.47;;;3.20;;
26102;SDS011;69760;49.380;8.998;2024-01-27T22:23:13;8.97;;;3.20;;
26102;SDS011;69760;49.380;8.998;2024-01-27T22:25:38;7.93;;;3.10;;
26102;SDS011;69760;49.380;8.998;2024-01-27T22:28:04;10.67;;;3.53;;
26102;SDS011;69760;49.380;8.998;2024-01-27T22:30:30;11.80;;;3.50;;
26102;SDS011;69760;49.380;8.998;2024-01-27T22:32:56;12.13;;;3.17;;
26102;SDS011;69760;49.380;8.998;2024-01-27T22:35:25;11.13;;;3.10;;
26102;SDS011;69760;49.380;8.998;2024-01-27T22:37:51;7.13;;;3.13;;
26102;SDS011;69760;49.380;8.998;2024-01-27T22:40:16;9.13;;;4.17;;
26102;SDS011;69760;49.380;8.998;2024-01-27T22:42:42;12.90;;;3.90;;
26102;SDS011;69760;49.380;8.998;2024-01-27T22:45:08;16.17;;;4.43;;
26102;SDS011;69760;49.380;8.998;2024-01-27T22:47:33;9.83;;;3.73;;
26102;SDS011;69760;49.380;8.998;2024-01-27T22:49:59;12.77;;;4.10;;
26102;SDS011;69760;49.380;8.998;2024-01-27T22:52:28;15.10;;;4.73;;
26102;SDS011;69760;49.380;8.998;2024-01-27T22:54:54;11.90;;;4.90;;
26102;SDS011;69760;49.380;8.998;2024-01-27T22:57:19;25.87;;;8.90;;
26102;SDS011;69760;49.380;8.998;2024-01-27T22:59:45;32.17;;;11.43;;
26102;SDS011;69760;49.380;8.998;2024-01-27T23:02:12;31.07;;;9.83;;
26102;SDS011;69760;49.380;8.998;2024-01-27T23:04:38;26.03;;;8.77;;
26102;SDS011;69760;49.380;8.998;2024-01-27T23:07:05;21.60;;;7.93;;
26102;SDS011;69760;49.380;8.998;2024-01-27T23:09:30;14.13;;;6.63;;
26102;SDS011;69760;49.380;8.998;2024-01-27T23:11:56;13.77;;;6.63;;
26102;SDS011;69760;49.380;8.998;2024-01-27T23:14:21;15.30;;;6.10;;
26102;SDS011;69760;49.380;8.998;2024-01-27T23:16:47;12.63;;;5.73;;
26102;SDS011;69760;49.380;8.998;2024-01-27T23:19:12;14.13;;;5.20;;
26102;SDS011;69760;49.380;8.998;2024-01-27T23:21:38;9.90;;;4.73;;
26102;SDS011;69760;49.380;8.998;2024-01-27T23:24:05;11.87;;;4.90;;
26102;SDS011;69760;49.380;8.998;2024-01-27T23:26:32;10.93;;;4.40;;
26102;SDS011;69760;49.380;8.998;2024-01-27T23:28:58;12.13;;;4.50;;
26102;SDS011;69760;49.380;8.998;2024-01-27T23:31:23;7.17;;;4.03;;
26102;SDS011;69760;49.380;8.998;2024-01-27T23:33:49;9.43;;;4.13;;
26102;SDS011;69760;49.380;8.998;2024-01-27T23:36:14;10.07;;;3.60;;
26102;SDS011;69760;49.380;8.998;2024-01-27T23:38:40;8.07;;;2.93;;
26102;SDS011;69760;49.380;8.998;2024-01-27T23:41:05;7.90;;;3.30;;
26102;SDS011;69760;49.380;8.998;2024-01-27T23:43:31;6.70;;;3.10;;
26102;SDS011;69760;49.380;8.998;2024-01-27T23:45:57;8.43;;;3.27;;
26102;SDS011;69760;49.380;8.998;2024-01-27T23:48:22;14.07;;;3.13;;
26102;SDS011;69760;49.380;8.998;2024-01-27T23:50:48;8.20;;;3.50;;
26102;SDS011;69760;49.380;8.998;2024-01-27T23:53:16;8.77;;;3.13;;
26102;SDS011;69760;49.380;8.998;2024-01-27T23:55:45;8.33;;;2.90;;
26102;SDS011;69760;49.380;8.998;2024-01-27T23:58:13;6.30;;;2.80;;
